sensor_id;sensor_type;location;lat;lon;timestamp;P1;durP1;ratioP1;P2;durP2;ratioP2
65751;SDS011;52486;51.098;13.770;2023-03-23T00:01:48;1.38;;;1.23;;
65751;SDS011;52486;51.098;13.770;2023-03-23T00:04:17;1.42;;;1.10;;
65751;SDS011;52486;51.098;13.770;2023-03-23T00:06:43;1.00;;;0.90;;
65751;SDS011;52486;51.098;13.770;2023-03-23T00:09:10;1.40;;;1.30;;
65751;SDS011;52486;51.098;13.770;2023-03-23T00:11:37;1.35;;;1.00;;
65751;SDS011;52486;51.098;13.770;2023-03-23T00:14:04;1.50;;;1.20;;
65751;SDS011;52486;51.098;13.770;2023-03-23T00:16:31;1.20;;;1.10;;
65751;SDS011;52486;51.098;13.770;2023-03-23T00:18:59;1.20;;;1.10;;
65751;SDS011;52486;51.098;13.770;2023-03-23T00:21:28;1.67;;;0.98;;
65751;SDS011;52486;51.098;13.770;2023-03-23T00:23:59;1.30;;;1.20;;
65751;SDS011;52486;51.098;13.770;2023-03-23T00:26:30;1.20;;;1.10;;
65751;SDS011;52486;51.098;13.770;2023-03-23T00:28:59;1.30;;;1.10;;
65751;SDS011;52486;51.098;13.770;2023-03-23T00:31:26;1.27;;;1.17;;
65751;SDS011;52486;51.098;13.770;2023-03-23T00:36:23;1.17;;;1.08;;
65751;SDS011;52486;51.098;13.770;2023-03-23T00:38:49;1.20;;;1.10;;
65751;SDS011;52486;51.098;13.770;2023-03-23T00:41:14;1.00;;;1.00;;
65751;SDS011;52486;51.098;13.770;2023-03-23T00:43:41;1.25;;;1.15;;
65751;SDS011;52486;51.098;13.770;2023-03-23T00:46:06;1.27;;;1.17;;
65751;SDS011;52486;51.098;13.770;2023-03-23T00:48:35;2.00;;;1.33;;
65751;SDS011;52486;51.098;13.770;2023-03-23T00:51:02;1.30;;;1.20;;
65751;SDS011;52486;51.098;13.770;2023-03-23T00:53:31;1.02;;;0.93;;
65751;SDS011;52486;51.098;13.770;2023-03-23T00:55:58;1.30;;;1.20;;
65751;SDS011;52486;51.098;13.770;2023-03-23T00:58:23;1.15;;;1.05;;
65751;SDS011;52486;51.098;13.770;2023-03-23T01:00:49;1.15;;;1.05;;
65751;SDS011;52486;51.098;13.770;2023-03-23T01:03:15;1.65;;;1.30;;
65751;SDS011;52486;51.098;13.770;2023-03-23T01:05:43;1.35;;;1.10;;
65751;SDS011;52486;51.098;13.770;2023-03-23T01:08:12;1.48;;;1.13;;
65751;SDS011;52486;51.098;13.770;2023-03-23T01:10:39;1.08;;;1.08;;
65751;SDS011;52486;51.098;13.770;2023-03-23T01:13:06;0.88;;;0.88;;
65751;SDS011;52486;51.098;13.770;2023-03-23T01:15:32;1.10;;;1.00;;
65751;SDS011;52486;51.098;13.770;2023-03-23T01:17:58;1.20;;;1.10;;
65751;SDS011;52486;51.098;13.770;2023-03-23T01:20:25;1.63;;;1.27;;
65751;SDS011;52486;51.098;13.770;2023-03-23T01:22:56;2.95;;;1.17;;
65751;SDS011;52486;51.098;13.770;2023-03-23T01:25:25;2.33;;;1.20;;
65751;SDS011;52486;51.098;13.770;2023-03-23T01:27:56;0.98;;;0.98;;
65751;SDS011;52486;51.098;13.770;2023-03-23T01:30:22;1.13;;;1.02;;
65751;SDS011;52486;51.098;13.770;2023-03-23T01:32:49;0.90;;;0.90;;
65751;SDS011;52486;51.098;13.770;2023-03-23T01:35:15;1.05;;;0.98;;
65751;SDS011;52486;51.098;13.770;2023-03-23T01:37:41;0.90;;;0.90;;
65751;SDS011;52486;51.098;13.770;2023-03-23T01:40:07;1.25;;;0.93;;
65751;SDS011;52486;51.098;13.770;2023-03-23T01:42:35;1.88;;;1.05;;
65751;SDS011;52486;51.098;13.770;2023-03-23T01:47:47;0.98;;;0.90;;
65751;SDS011;52486;51.098;13.770;2023-03-23T01:50:17;1.33;;;0.90;;
65751;SDS011;52486;51.098;13.770;2023-03-23T01:52:48;0.95;;;0.95;;
65751;SDS011;52486;51.098;13.770;2023-03-23T01:55:17;1.05;;;1.00;;
65751;SDS011;52486;51.098;13.770;2023-03-23T01:57:43;1.85;;;1.02;;
65751;SDS011;52486;51.098;13.770;2023-03-23T02:00:10;0.77;;;0.77;;
65751;SDS011;52486;51.098;13.770;2023-03-23T02:02:40;1.20;;;0.98;;
65751;SDS011;52486;51.098;13.770;2023-03-23T02:05:10;1.15;;;1.00;;
65751;SDS011;52486;51.098;13.770;2023-03-23T02:07:38;0.90;;;0.90;;
65751;SDS011;52486;51.098;13.770;2023-03-23T02:10:05;1.35;;;0.85;;
65751;SDS011;52486;51.098;13.770;2023-03-23T02:12:31;1.00;;;1.00;;
65751;SDS011;52486;51.098;13.770;2023-03-23T02:14:57;1.30;;;1.20;;
65751;SDS011;52486;51.098;13.770;2023-03-23T02:17:25;0.80;;;0.80;;
65751;SDS011;52486;51.098;13.770;2023-03-23T02:26:15;0.95;;;0.95;;
65751;SDS011;52486;51.098;13.770;2023-03-23T02:38:57;1.20;;;1.10;;
65751;SDS011;52486;51.098;13.770;2023-03-23T02:41:32;1.42;;;1.10;;
65751;SDS011;52486;51.098;13.770;2023-03-23T02:44:12;0.80;;;0.80;;
65751;SDS011;52486;51.098;13.770;2023-03-23T02:46:40;2.17;;;0.90;;
65751;SDS011;52486;51.098;13.770;2023-03-23T02:49:07;0.88;;;0.85;;
65751;SDS011;52486;51.098;13.770;2023-03-23T02:51:36;0.93;;;0.88;;
65751;SDS011;52486;51.098;13.770;2023-03-23T02:54:03;3.28;;;1.00;;
65751;SDS011;52486;51.098;13.770;2023-03-23T02:56:30;1.33;;;1.08;;
65751;SDS011;52486;51.098;13.770;2023-03-23T02:58:58;1.10;;;1.00;;
65751;SDS011;52486;51.098;13.770;2023-03-23T03:03:59;1.13;;;1.00;;
65751;SDS011;52486;51.098;13.770;2023-03-23T03:09:56;1.17;;;1.05;;
65751;SDS011;52486;51.098;13.770;2023-03-23T03:20:32;0.73;;;0.70;;
65751;SDS011;52486;51.098;13.770;2023-03-23T03:23:02;0.98;;;0.85;;
65751;SDS011;52486;51.098;13.770;2023-03-23T03:25:32;1.20;;;0.90;;
65751;SDS011;52486;51.098;13.770;2023-03-23T03:27:59;1.13;;;0.80;;
65751;SDS011;52486;51.098;13.770;2023-03-23T03:30:26;1.48;;;1.20;;
65751;SDS011;52486;51.098;13.770;2023-03-23T03:32:56;0.80;;;0.80;;
65751;SDS011;52486;51.098;13.770;2023-03-23T03:35:25;0.85;;;0.70;;
65751;SDS011;52486;51.098;13.770;2023-03-23T03:37:51;0.98;;;0.90;;
65751;SDS011;52486;51.098;13.770;2023-03-23T03:40:19;0.82;;;0.80;;
65751;SDS011;52486;51.098;13.770;2023-03-23T03:42:47;1.70;;;0.90;;
65751;SDS011;52486;51.098;13.770;2023-03-23T03:45:14;0.85;;;0.85;;
65751;SDS011;52486;51.098;13.770;2023-03-23T03:47:42;1.42;;;0.98;;
65751;SDS011;52486;51.098;13.770;2023-03-23T03:50:08;0.90;;;0.90;;
65751;SDS011;52486;51.098;13.770;2023-03-23T03:52:34;1.00;;;0.90;;
65751;SDS011;52486;51.098;13.770;2023-03-23T03:55:01;0.95;;;0.90;;
65751;SDS011;52486;51.098;13.770;2023-03-23T03:57:27;0.70;;;0.70;;
65751;SDS011;52486;51.098;13.770;2023-03-23T03:59:53;0.90;;;0.85;;
65751;SDS011;52486;51.098;13.770;2023-03-23T04:02:18;1.02;;;0.93;;
65751;SDS011;52486;51.098;13.770;2023-03-23T04:04:45;1.00;;;0.90;;
65751;SDS011;52486;51.098;13.770;2023-03-23T04:07:12;2.10;;;1.23;;
65751;SDS011;52486;51.098;13.770;2023-03-23T04:09:39;1.50;;;0.85;;
65751;SDS011;52486;51.098;13.770;2023-03-23T04:12:05;1.13;;;1.00;;
65751;SDS011;52486;51.098;13.770;2023-03-23T04:14:31;1.13;;;0.90;;
65751;SDS011;52486;51.098;13.770;2023-03-23T04:16:57;0.90;;;0.80;;
65751;SDS011;52486;51.098;13.770;2023-03-23T04:19:24;3.60;;;1.00;;
65751;SDS011;52486;51.098;13.770;2023-03-23T04:21:50;1.40;;;0.90;;
65751;SDS011;52486;51.098;13.770;2023-03-23T04:24:16;1.13;;;0.80;;
65751;SDS011;52486;51.098;13.770;2023-03-23T04:26:46;1.58;;;1.00;;
65751;SDS011;52486;51.098;13.770;2023-03-23T04:29:12;2.95;;;1.00;;
65751;SDS011;52486;51.098;13.770;2023-03-23T04:31:38;1.27;;;0.90;;
65751;SDS011;52486;51.098;13.770;2023-03-23T04:34:05;0.80;;;0.80;;
65751;SDS011;52486;51.098;13.770;2023-03-23T04:36:31;1.42;;;1.00;;
65751;SDS011;52486;51.098;13.770;2023-03-23T04:38:59;0.77;;;0.77;;
65751;SDS011;52486;51.098;13.770;2023-03-23T04:41:25;1.20;;;1.10;;
65751;SDS011;52486;51.098;13.770;2023-03-23T04:43:51;1.00;;;0.90;;
65751;SDS011;52486;51.098;13.770;2023-03-23T04:46:19;0.90;;;0.80;;
65751;SDS011;52486;51.098;13.770;2023-03-23T04:48:46;0.75;;;0.75;;
65751;SDS011;52486;51.098;13.770;2023-03-23T04:51:12;1.10;;;1.00;;
65751;SDS011;52486;51.098;13.770;2023-03-23T04:53:38;0.90;;;0.90;;
65751;SDS011;52486;51.098;13.770;2023-03-23T04:56:04;1.42;;;0.90;;
65751;SDS011;52486;51.098;13.770;2023-03-23T04:58:30;1.48;;;1.00;;
65751;SDS011;52486;51.098;13.770;2023-03-23T05:00:59;0.80;;;0.80;;
65751;SDS011;52486;51.098;13.770;2023-03-23T05:03:25;1.33;;;1.00;;
65751;SDS011;52486;51.098;13.770;2023-03-23T05:05:52;1.02;;;1.00;;
65751;SDS011;52486;51.098;13.770;2023-03-23T05:08:21;1.05;;;0.93;;
65751;SDS011;52486;51.098;13.770;2023-03-23T05:10:53;1.13;;;1.00;;
65751;SDS011;52486;51.098;13.770;2023-03-23T05:13:20;0.93;;;0.90;;
65751;SDS011;52486;51.098;13.770;2023-03-23T05:15:46;1.10;;;1.00;;
65751;SDS011;52486;51.098;13.770;2023-03-23T05:18:13;1.00;;;0.90;;
65751;SDS011;52486;51.098;13.770;2023-03-23T05:20:39;1.35;;;1.02;;
65751;SDS011;52486;51.098;13.770;2023-03-23T05:23:06;0.80;;;0.80;;
65751;SDS011;52486;51.098;13.770;2023-03-23T05:25:32;1.05;;;0.90;;
65751;SDS011;52486;51.098;13.770;2023-03-23T05:28:02;1.45;;;1.13;;
65751;SDS011;52486;51.098;13.770;2023-03-23T05:30:28;1.38;;;0.73;;
65751;SDS011;52486;51.098;13.770;2023-03-23T05:32:54;0.95;;;0.90;;
65751;SDS011;52486;51.098;13.770;2023-03-23T05:35:21;0.80;;;0.80;;
65751;SDS011;52486;51.098;13.770;2023-03-23T05:37:47;1.23;;;0.95;;
65751;SDS011;52486;51.098;13.770;2023-03-23T05:40:13;1.00;;;0.90;;
65751;SDS011;52486;51.098;13.770;2023-03-23T05:42:40;1.90;;;0.95;;
65751;SDS011;52486;51.098;13.770;2023-03-23T05:45:07;2.33;;;1.25;;
65751;SDS011;52486;51.098;13.770;2023-03-23T05:47:36;1.58;;;0.90;;
65751;SDS011;52486;51.098;13.770;2023-03-23T05:50:02;0.90;;;0.90;;
65751;SDS011;52486;51.098;13.770;2023-03-23T05:52:30;3.78;;;1.10;;
65751;SDS011;52486;51.098;13.770;2023-03-23T05:54:57;1.20;;;1.00;;
65751;SDS011;52486;51.098;13.770;2023-03-23T05:57:24;2.50;;;0.90;;
65751;SDS011;52486;51.098;13.770;2023-03-23T05:59:50;1.08;;;0.90;;
65751;SDS011;52486;51.098;13.770;2023-03-23T06:02:16;3.17;;;1.00;;
65751;SDS011;52486;51.098;13.770;2023-03-23T06:04:41;1.92;;;1.10;;
65751;SDS011;52486;51.098;13.770;2023-03-23T06:07:08;0.95;;;0.85;;
65751;SDS011;52486;51.098;13.770;2023-03-23T06:09:39;1.25;;;1.10;;
65751;SDS011;52486;51.098;13.770;2023-03-23T06:12:06;1.10;;;1.00;;
65751;SDS011;52486;51.098;13.770;2023-03-23T06:14:32;2.60;;;1.38;;
65751;SDS011;52486;51.098;13.770;2023-03-23T06:16:58;5.00;;;1.40;;
65751;SDS011;52486;51.098;13.770;2023-03-23T06:19:24;3.40;;;1.23;;
65751;SDS011;52486;51.098;13.770;2023-03-23T06:21:51;3.42;;;1.10;;
65751;SDS011;52486;51.098;13.770;2023-03-23T06:24:19;4.60;;;1.40;;
65751;SDS011;52486;51.098;13.770;2023-03-23T06:26:46;4.55;;;1.10;;
65751;SDS011;52486;51.098;13.770;2023-03-23T06:29:13;3.38;;;1.40;;
65751;SDS011;52486;51.098;13.770;2023-03-23T06:31:45;4.05;;;1.50;;
65751;SDS011;52486;51.098;13.770;2023-03-23T06:34:13;3.33;;;2.03;;
65751;SDS011;52486;51.098;13.770;2023-03-23T06:36:39;5.28;;;2.10;;
65751;SDS011;52486;51.098;13.770;2023-03-23T06:39:05;3.83;;;1.48;;
65751;SDS011;52486;51.098;13.770;2023-03-23T06:41:32;3.05;;;1.60;;
65751;SDS011;52486;51.098;13.770;2023-03-23T06:43:58;1.67;;;1.40;;
65751;SDS011;52486;51.098;13.770;2023-03-23T06:46:25;4.80;;;1.50;;
65751;SDS011;52486;51.098;13.770;2023-03-23T06:48:51;2.67;;;1.77;;
65751;SDS011;52486;51.098;13.770;2023-03-23T06:51:17;5.72;;;1.33;;
65751;SDS011;52486;51.098;13.770;2023-03-23T06:53:43;2.20;;;1.30;;
65751;SDS011;52486;51.098;13.770;2023-03-23T06:56:09;2.67;;;1.40;;
65751;SDS011;52486;51.098;13.770;2023-03-23T06:58:37;2.35;;;1.30;;
65751;SDS011;52486;51.098;13.770;2023-03-23T07:01:03;3.10;;;1.42;;
65751;SDS011;52486;51.098;13.770;2023-03-23T07:03:28;3.08;;;1.25;;
65751;SDS011;52486;51.098;13.770;2023-03-23T07:05:56;2.15;;;1.48;;
65751;SDS011;52486;51.098;13.770;2023-03-23T07:08:21;2.88;;;1.35;;
65751;SDS011;52486;51.098;13.770;2023-03-23T07:10:47;5.05;;;1.55;;
65751;SDS011;52486;51.098;13.770;2023-03-23T07:13:17;2.33;;;1.50;;
65751;SDS011;52486;51.098;13.770;2023-03-23T07:15:43;4.32;;;1.33;;
65751;SDS011;52486;51.098;13.770;2023-03-23T07:18:09;1.85;;;1.42;;
65751;SDS011;52486;51.098;13.770;2023-03-23T07:20:35;3.78;;;1.58;;
65751;SDS011;52486;51.098;13.770;2023-03-23T07:23:01;5.57;;;1.58;;
65751;SDS011;52486;51.098;13.770;2023-03-23T07:25:27;5.22;;;1.58;;
65751;SDS011;52486;51.098;13.770;2023-03-23T07:27:53;3.00;;;1.50;;
65751;SDS011;52486;51.098;13.770;2023-03-23T07:30:19;3.90;;;1.50;;
65751;SDS011;52486;51.098;13.770;2023-03-23T07:32:45;4.10;;;1.60;;
65751;SDS011;52486;51.098;13.770;2023-03-23T07:35:11;4.40;;;1.60;;
65751;SDS011;52486;51.098;13.770;2023-03-23T07:37:37;3.47;;;1.50;;
65751;SDS011;52486;51.098;13.770;2023-03-23T07:40:03;6.18;;;1.52;;
65751;SDS011;52486;51.098;13.770;2023-03-23T07:42:51;10.80;;;1.90;;
65751;SDS011;52486;51.098;13.770;2023-03-23T07:45:21;3.63;;;1.58;;
65751;SDS011;52486;51.098;13.770;2023-03-23T07:47:48;2.80;;;1.70;;
65751;SDS011;52486;51.098;13.770;2023-03-23T07:50:13;2.15;;;1.38;;
65751;SDS011;52486;51.098;13.770;2023-03-23T07:52:40;2.67;;;1.65;;
65751;SDS011;52486;51.098;13.770;2023-03-23T07:55:07;7.38;;;1.50;;
65751;SDS011;52486;51.098;13.770;2023-03-23T07:57:45;10.05;;;1.65;;
65751;SDS011;52486;51.098;13.770;2023-03-23T08:00:13;2.38;;;1.40;;
65751;SDS011;52486;51.098;13.770;2023-03-23T08:02:44;1.52;;;1.42;;
65751;SDS011;52486;51.098;13.770;2023-03-23T08:05:11;1.70;;;1.60;;
65751;SDS011;52486;51.098;13.770;2023-03-23T08:07:38;5.22;;;1.75;;
65751;SDS011;52486;51.098;13.770;2023-03-23T08:10:05;2.42;;;1.75;;
65751;SDS011;52486;51.098;13.770;2023-03-23T08:15:03;2.45;;;1.70;;
65751;SDS011;52486;51.098;13.770;2023-03-23T08:17:33;1.88;;;1.50;;
65751;SDS011;52486;51.098;13.770;2023-03-23T08:20:00;9.10;;;1.88;;
65751;SDS011;52486;51.098;13.770;2023-03-23T08:22:26;3.55;;;1.40;;
65751;SDS011;52486;51.098;13.770;2023-03-23T08:24:54;3.38;;;1.58;;
65751;SDS011;52486;51.098;13.770;2023-03-23T08:27:20;3.33;;;1.98;;
65751;SDS011;52486;51.098;13.770;2023-03-23T08:29:46;2.42;;;1.77;;
65751;SDS011;52486;51.098;13.770;2023-03-23T08:32:13;3.10;;;2.00;;
65751;SDS011;52486;51.098;13.770;2023-03-23T08:34:38;5.20;;;1.90;;
65751;SDS011;52486;51.098;13.770;2023-03-23T08:37:04;5.95;;;2.05;;
65751;SDS011;52486;51.098;13.770;2023-03-23T08:39:31;8.38;;;2.00;;
65751;SDS011;52486;51.098;13.770;2023-03-23T08:41:56;5.00;;;2.13;;
65751;SDS011;52486;51.098;13.770;2023-03-23T08:44:22;2.00;;;1.80;;
65751;SDS011;52486;51.098;13.770;2023-03-23T08:46:48;2.65;;;2.10;;
65751;SDS011;52486;51.098;13.770;2023-03-23T08:49:14;4.38;;;1.92;;
65751;SDS011;52486;51.098;13.770;2023-03-23T08:51:40;2.97;;;1.73;;
65751;SDS011;52486;51.098;13.770;2023-03-23T08:54:07;3.92;;;2.00;;
65751;SDS011;52486;51.098;13.770;2023-03-23T08:56:34;5.30;;;2.05;;
65751;SDS011;52486;51.098;13.770;2023-03-23T08:58:59;4.65;;;1.80;;
65751;SDS011;52486;51.098;13.770;2023-03-23T09:01:25;3.40;;;2.10;;
65751;SDS011;52486;51.098;13.770;2023-03-23T09:03:51;4.10;;;2.08;;
65751;SDS011;52486;51.098;13.770;2023-03-23T09:06:18;7.80;;;2.20;;
65751;SDS011;52486;51.098;13.770;2023-03-23T09:08:45;3.08;;;1.73;;
65751;SDS011;52486;51.098;13.770;2023-03-23T09:11:10;3.08;;;1.70;;
65751;SDS011;52486;51.098;13.770;2023-03-23T09:13:37;2.20;;;1.80;;
65751;SDS011;52486;51.098;13.770;2023-03-23T09:16:05;3.38;;;2.20;;
65751;SDS011;52486;51.098;13.770;2023-03-23T09:18:31;2.25;;;1.90;;
65751;SDS011;52486;51.098;13.770;2023-03-23T09:20:58;2.70;;;1.63;;
65751;SDS011;52486;51.098;13.770;2023-03-23T09:23:24;2.88;;;1.92;;
65751;SDS011;52486;51.098;13.770;2023-03-23T09:25:51;2.30;;;1.80;;
65751;SDS011;52486;51.098;13.770;2023-03-23T09:28:17;2.38;;;1.83;;
65751;SDS011;52486;51.098;13.770;2023-03-23T09:30:43;1.95;;;1.60;;
65751;SDS011;52486;51.098;13.770;2023-03-23T09:33:10;2.30;;;1.88;;
65751;SDS011;52486;51.098;13.770;2023-03-23T09:35:37;2.25;;;1.92;;
65751;SDS011;52486;51.098;13.770;2023-03-23T09:38:04;5.25;;;2.10;;
65751;SDS011;52486;51.098;13.770;2023-03-23T09:40:32;2.45;;;1.70;;
65751;SDS011;52486;51.098;13.770;2023-03-23T09:49:17;3.60;;;1.80;;
65751;SDS011;52486;51.098;13.770;2023-03-23T09:51:51;3.63;;;1.50;;
65751;SDS011;52486;51.098;13.770;2023-03-23T09:56:55;3.20;;;1.80;;
65751;SDS011;52486;51.098;13.770;2023-03-23T09:59:25;3.05;;;1.58;;
65751;SDS011;52486;51.098;13.770;2023-03-23T10:04:51;4.53;;;1.80;;
65751;SDS011;52486;51.098;13.770;2023-03-23T10:07:22;3.22;;;1.50;;
65751;SDS011;52486;51.098;13.770;2023-03-23T10:09:54;4.23;;;1.50;;
65751;SDS011;52486;51.098;13.770;2023-03-23T10:12:29;1.42;;;1.33;;
65751;SDS011;52486;51.098;13.770;2023-03-23T10:17:47;2.42;;;1.50;;
65751;SDS011;52486;51.098;13.770;2023-03-23T10:20:29;4.30;;;1.33;;
65751;SDS011;52486;51.098;13.770;2023-03-23T10:25:47;1.50;;;1.40;;
65751;SDS011;52486;51.098;13.770;2023-03-23T10:28:38;1.77;;;1.42;;
65751;SDS011;52486;51.098;13.770;2023-03-23T10:31:10;1.50;;;1.40;;
65751;SDS011;52486;51.098;13.770;2023-03-23T10:36:23;1.70;;;1.60;;
65751;SDS011;52486;51.098;13.770;2023-03-23T10:41:43;2.00;;;1.80;;
65751;SDS011;52486;51.098;13.770;2023-03-23T10:44:30;1.90;;;1.70;;
65751;SDS011;52486;51.098;13.770;2023-03-23T10:46:58;4.70;;;1.88;;
65751;SDS011;52486;51.098;13.770;2023-03-23T10:49:41;3.35;;;1.45;;
65751;SDS011;52486;51.098;13.770;2023-03-23T10:54:56;2.58;;;1.60;;
65751;SDS011;52486;51.098;13.770;2023-03-23T10:57:29;2.33;;;1.35;;
65751;SDS011;52486;51.098;13.770;2023-03-23T11:00:00;1.40;;;1.30;;
65751;SDS011;52486;51.098;13.770;2023-03-23T11:02:38;2.08;;;1.25;;
65751;SDS011;52486;51.098;13.770;2023-03-23T11:05:18;1.60;;;1.30;;
65751;SDS011;52486;51.098;13.770;2023-03-23T11:07:51;1.98;;;1.13;;
65751;SDS011;52486;51.098;13.770;2023-03-23T11:10:23;1.63;;;1.40;;
65751;SDS011;52486;51.098;13.770;2023-03-23T11:12:51;1.52;;;1.33;;
65751;SDS011;52486;51.098;13.770;2023-03-23T11:15:26;2.15;;;1.42;;
65751;SDS011;52486;51.098;13.770;2023-03-23T11:18:01;5.05;;;1.40;;
65751;SDS011;52486;51.098;13.770;2023-03-23T11:20:29;3.10;;;1.60;;
65751;SDS011;52486;51.098;13.770;2023-03-23T11:25:59;4.32;;;1.80;;
65751;SDS011;52486;51.098;13.770;2023-03-23T11:28:26;4.65;;;1.38;;
65751;SDS011;52486;51.098;13.770;2023-03-23T11:30:55;3.67;;;1.58;;
65751;SDS011;52486;51.098;13.770;2023-03-23T11:33:23;5.88;;;1.80;;
65751;SDS011;52486;51.098;13.770;2023-03-23T11:35:50;5.95;;;1.52;;
65751;SDS011;52486;51.098;13.770;2023-03-23T11:38:19;6.38;;;1.40;;
65751;SDS011;52486;51.098;13.770;2023-03-23T11:40:48;2.38;;;1.70;;
65751;SDS011;52486;51.098;13.770;2023-03-23T11:43:20;4.68;;;1.35;;
65751;SDS011;52486;51.098;13.770;2023-03-23T11:48:45;2.13;;;1.50;;
65751;SDS011;52486;51.098;13.770;2023-03-23T11:51:24;2.85;;;1.45;;
65751;SDS011;52486;51.098;13.770;2023-03-23T11:54:09;3.58;;;2.00;;
65751;SDS011;52486;51.098;13.770;2023-03-23T11:56:43;3.95;;;1.63;;
65751;SDS011;52486;51.098;13.770;2023-03-23T11:59:14;3.15;;;1.50;;
65751;SDS011;52486;51.098;13.770;2023-03-23T12:07:17;2.85;;;1.40;;
65751;SDS011;52486;51.098;13.770;2023-03-23T12:14:46;1.77;;;1.40;;
65751;SDS011;52486;51.098;13.770;2023-03-23T12:19:49;2.40;;;1.73;;
65751;SDS011;52486;51.098;13.770;2023-03-23T12:36:08;5.35;;;1.65;;
65751;SDS011;52486;51.098;13.770;2023-03-23T12:41:07;6.70;;;1.58;;
65751;SDS011;52486;51.098;13.770;2023-03-23T12:44:02;7.27;;;1.80;;
65751;SDS011;52486;51.098;13.770;2023-03-23T12:52:28;3.83;;;1.77;;
65751;SDS011;52486;51.098;13.770;2023-03-23T12:57:40;4.60;;;1.50;;
65751;SDS011;52486;51.098;13.770;2023-03-23T13:00:21;5.55;;;2.00;;
65751;SDS011;52486;51.098;13.770;2023-03-23T13:06:14;3.70;;;1.80;;
65751;SDS011;52486;51.098;13.770;2023-03-23T13:09:03;4.60;;;1.70;;
65751;SDS011;52486;51.098;13.770;2023-03-23T13:11:40;2.08;;;1.60;;
65751;SDS011;52486;51.098;13.770;2023-03-23T13:17:06;3.83;;;1.42;;
65751;SDS011;52486;51.098;13.770;2023-03-23T13:20:04;6.43;;;1.75;;
65751;SDS011;52486;51.098;13.770;2023-03-23T13:28:14;12.95;;;1.95;;
65751;SDS011;52486;51.098;13.770;2023-03-23T13:30:52;3.75;;;1.80;;
65751;SDS011;52486;51.098;13.770;2023-03-23T13:33:38;7.50;;;1.60;;
65751;SDS011;52486;51.098;13.770;2023-03-23T13:36:08;8.00;;;1.70;;
65751;SDS011;52486;51.098;13.770;2023-03-23T13:38:35;4.78;;;1.70;;
65751;SDS011;52486;51.098;13.770;2023-03-23T13:41:06;5.65;;;1.77;;
65751;SDS011;52486;51.098;13.770;2023-03-23T13:43:35;5.75;;;1.85;;
65751;SDS011;52486;51.098;13.770;2023-03-23T13:46:11;5.85;;;1.88;;
65751;SDS011;52486;51.098;13.770;2023-03-23T13:54:14;4.78;;;3.30;;
65751;SDS011;52486;51.098;13.770;2023-03-23T13:57:00;3.83;;;3.33;;
65751;SDS011;52486;51.098;13.770;2023-03-23T14:04:54;7.43;;;3.92;;
65751;SDS011;52486;51.098;13.770;2023-03-23T14:07:20;4.20;;;3.65;;
65751;SDS011;52486;51.098;13.770;2023-03-23T14:09:49;8.48;;;3.92;;
65751;SDS011;52486;51.098;13.770;2023-03-23T14:12:20;6.15;;;4.00;;
65751;SDS011;52486;51.098;13.770;2023-03-23T14:14:51;7.88;;;3.80;;
65751;SDS011;52486;51.098;13.770;2023-03-23T14:17:31;4.53;;;4.05;;
65751;SDS011;52486;51.098;13.770;2023-03-23T14:20:00;9.85;;;3.97;;
65751;SDS011;52486;51.098;13.770;2023-03-23T14:22:27;5.32;;;3.70;;
65751;SDS011;52486;51.098;13.770;2023-03-23T14:25:11;8.75;;;3.83;;
65751;SDS011;52486;51.098;13.770;2023-03-23T14:27:39;5.15;;;3.33;;
65751;SDS011;52486;51.098;13.770;2023-03-23T14:30:08;8.35;;;3.33;;
65751;SDS011;52486;51.098;13.770;2023-03-23T14:32:38;5.85;;;3.45;;
65751;SDS011;52486;51.098;13.770;2023-03-23T14:35:06;6.22;;;3.38;;
65751;SDS011;52486;51.098;13.770;2023-03-23T14:37:37;5.38;;;3.00;;
65751;SDS011;52486;51.098;13.770;2023-03-23T14:40:03;6.03;;;3.20;;
65751;SDS011;52486;51.098;13.770;2023-03-23T14:42:33;6.20;;;3.00;;
65751;SDS011;52486;51.098;13.770;2023-03-23T14:45:01;6.90;;;3.00;;
65751;SDS011;52486;51.098;13.770;2023-03-23T14:47:37;5.15;;;2.88;;
65751;SDS011;52486;51.098;13.770;2023-03-23T14:50:18;6.75;;;3.08;;
65751;SDS011;52486;51.098;13.770;2023-03-23T14:53:52;4.28;;;2.90;;
65751;SDS011;52486;51.098;13.770;2023-03-23T14:56:06;4.50;;;2.55;;
65751;SDS011;52486;51.098;13.770;2023-03-23T14:58:36;2.55;;;2.35;;
65751;SDS011;52486;51.098;13.770;2023-03-23T15:01:05;4.43;;;2.95;;
65751;SDS011;52486;51.098;13.770;2023-03-23T15:04:18;4.28;;;2.65;;
65751;SDS011;52486;51.098;13.770;2023-03-23T15:06:30;10.60;;;2.67;;
65751;SDS011;52486;51.098;13.770;2023-03-23T15:08:59;4.60;;;2.58;;
65751;SDS011;52486;51.098;13.770;2023-03-23T15:11:31;5.05;;;2.60;;
65751;SDS011;52486;51.098;13.770;2023-03-23T15:14:00;4.68;;;2.50;;
65751;SDS011;52486;51.098;13.770;2023-03-23T15:16:51;5.80;;;2.42;;
65751;SDS011;52486;51.098;13.770;2023-03-23T15:19:19;3.72;;;2.08;;
65751;SDS011;52486;51.098;13.770;2023-03-23T15:21:53;3.97;;;2.40;;
65751;SDS011;52486;51.098;13.770;2023-03-23T15:24:21;6.25;;;2.40;;
65751;SDS011;52486;51.098;13.770;2023-03-23T15:26:49;13.65;;;3.00;;
65751;SDS011;52486;51.098;13.770;2023-03-23T15:29:17;8.13;;;1.95;;
65751;SDS011;52486;51.098;13.770;2023-03-23T15:31:49;5.22;;;2.22;;
65751;SDS011;52486;51.098;13.770;2023-03-23T15:34:30;12.30;;;2.20;;
65751;SDS011;52486;51.098;13.770;2023-03-23T15:37:01;5.53;;;2.40;;
65751;SDS011;52486;51.098;13.770;2023-03-23T15:39:30;6.30;;;2.08;;
65751;SDS011;52486;51.098;13.770;2023-03-23T15:41:57;8.45;;;2.20;;
65751;SDS011;52486;51.098;13.770;2023-03-23T15:44:28;7.72;;;2.05;;
65751;SDS011;52486;51.098;13.770;2023-03-23T15:47:02;3.63;;;2.20;;
65751;SDS011;52486;51.098;13.770;2023-03-23T15:49:37;4.88;;;1.98;;
65751;SDS011;52486;51.098;13.770;2023-03-23T15:52:02;4.13;;;1.95;;
65751;SDS011;52486;51.098;13.770;2023-03-23T15:54:29;7.20;;;2.00;;
65751;SDS011;52486;51.098;13.770;2023-03-23T15:56:56;5.07;;;2.20;;
65751;SDS011;52486;51.098;13.770;2023-03-23T15:59:22;7.32;;;2.38;;
65751;SDS011;52486;51.098;13.770;2023-03-23T16:01:48;3.47;;;2.28;;
65751;SDS011;52486;51.098;13.770;2023-03-23T16:04:14;7.18;;;2.42;;
65751;SDS011;52486;51.098;13.770;2023-03-23T16:06:43;7.07;;;3.15;;
65751;SDS011;52486;51.098;13.770;2023-03-23T16:09:15;6.13;;;3.00;;
65751;SDS011;52486;51.098;13.770;2023-03-23T16:11:43;9.60;;;3.35;;
65751;SDS011;52486;51.098;13.770;2023-03-23T16:14:09;11.23;;;3.45;;
65751;SDS011;52486;51.098;13.770;2023-03-23T16:16:40;5.00;;;3.70;;
65751;SDS011;52486;51.098;13.770;2023-03-23T16:19:11;9.75;;;3.17;;
65751;SDS011;52486;51.098;13.770;2023-03-23T16:21:38;9.93;;;3.13;;
65751;SDS011;52486;51.098;13.770;2023-03-23T16:24:05;13.82;;;3.70;;
65751;SDS011;52486;51.098;13.770;2023-03-23T16:26:31;5.70;;;2.85;;
65751;SDS011;52486;51.098;13.770;2023-03-23T16:28:58;5.78;;;3.35;;
65751;SDS011;52486;51.098;13.770;2023-03-23T16:31:24;5.90;;;3.45;;
65751;SDS011;52486;51.098;13.770;2023-03-23T16:33:50;5.63;;;2.72;;
65751;SDS011;52486;51.098;13.770;2023-03-23T16:36:16;6.05;;;2.97;;
65751;SDS011;52486;51.098;13.770;2023-03-23T16:38:42;7.38;;;2.95;;
65751;SDS011;52486;51.098;13.770;2023-03-23T16:41:07;8.82;;;2.90;;
65751;SDS011;52486;51.098;13.770;2023-03-23T16:43:33;10.27;;;2.80;;
65751;SDS011;52486;51.098;13.770;2023-03-23T16:45:59;7.68;;;2.95;;
65751;SDS011;52486;51.098;13.770;2023-03-23T16:48:25;5.32;;;3.13;;
65751;SDS011;52486;51.098;13.770;2023-03-23T16:50:51;6.75;;;2.75;;
65751;SDS011;52486;51.098;13.770;2023-03-23T16:53:18;9.02;;;3.00;;
65751;SDS011;52486;51.098;13.770;2023-03-23T16:55:45;3.10;;;2.70;;